sensor_id;sensor_type;location;lat;lon;timestamp;pressure;altitude;pressure_sealevel;temperature
71081;BMP180;58740;50.672;18.690;2022-12-07T00:01:46;98461.40;;;2.70
71081;BMP180;58740;50.672;18.690;2022-12-07T00:04:17;98451.20;;;2.70
71081;BMP180;58740;50.672;18.690;2022-12-07T00:06:50;98453.60;;;2.70
71081;BMP180;58740;50.672;18.690;2022-12-07T00:09:19;98453.20;;;2.70
71081;BMP180;58740;50.672;18.690;2022-12-07T00:11:51;98449.60;;;2.70
71081;BMP180;58740;50.672;18.690;2022-12-07T00:14:20;98451.20;;;2.70
71081;BMP180;58740;50.672;18.690;2022-12-07T00:16:51;98447.80;;;2.72
71081;BMP180;58740;50.672;18.690;2022-12-07T00:19:19;98447.40;;;2.76
71081;BMP180;58740;50.672;18.690;2022-12-07T00:21:47;98449.20;;;2.76
71081;BMP180;58740;50.672;18.690;2022-12-07T00:24:15;98447.40;;;2.76
71081;BMP180;58740;50.672;18.690;2022-12-07T00:26:43;98444.40;;;2.70
71081;BMP180;58740;50.672;18.690;2022-12-07T00:29:19;98452.20;;;2.70
71081;BMP180;58740;50.672;18.690;2022-12-07T00:31:47;98444.60;;;2.70
71081;BMP180;58740;50.672;18.690;2022-12-07T00:34:18;98444.60;;;2.70
71081;BMP180;58740;50.672;18.690;2022-12-07T00:36:48;98441.20;;;2.78
71081;BMP180;58740;50.672;18.690;2022-12-07T00:39:16;98444.20;;;2.80
71081;BMP180;58740;50.672;18.690;2022-12-07T00:41:44;98445.00;;;2.80
71081;BMP180;58740;50.672;18.690;2022-12-07T00:44:12;98443.20;;;2.80
71081;BMP180;58740;50.672;18.690;2022-12-07T00:46:39;98432.00;;;2.78
71081;BMP180;58740;50.672;18.690;2022-12-07T00:49:07;98436.60;;;2.70
71081;BMP180;58740;50.672;18.690;2022-12-07T00:51:35;98434.00;;;2.70
71081;BMP180;58740;50.672;18.690;2022-12-07T00:54:03;98435.20;;;2.70
71081;BMP180;58740;50.672;18.690;2022-12-07T00:56:31;98435.80;;;2.74
71081;BMP180;58740;50.672;18.690;2022-12-07T00:59:03;98437.60;;;2.80
71081;BMP180;58740;50.672;18.690;2022-12-07T01:01:35;98438.80;;;2.80
71081;BMP180;58740;50.672;18.690;2022-12-07T01:04:03;98438.80;;;2.80
71081;BMP180;58740;50.672;18.690;2022-12-07T01:06:31;98439.80;;;2.80
71081;BMP180;58740;50.672;18.690;2022-12-07T01:09:00;98435.00;;;2.80
71081;BMP180;58740;50.672;18.690;2022-12-07T01:11:29;98434.20;;;2.80
71081;BMP180;58740;50.672;18.690;2022-12-07T01:13:59;98429.00;;;2.80
71081;BMP180;58740;50.672;18.690;2022-12-07T01:16:31;98430.80;;;2.80
71081;BMP180;58740;50.672;18.690;2022-12-07T01:19:00;98430.80;;;2.80
71081;BMP180;58740;50.672;18.690;2022-12-07T01:21:33;98430.00;;;2.80
71081;BMP180;58740;50.672;18.690;2022-12-07T01:24:06;98428.60;;;2.80
71081;BMP180;58740;50.672;18.690;2022-12-07T01:26:34;98429.20;;;2.80
71081;BMP180;58740;50.672;18.690;2022-12-07T01:29:02;98428.40;;;2.80
71081;BMP180;58740;50.672;18.690;2022-12-07T01:31:30;98423.40;;;2.80
71081;BMP180;58740;50.672;18.690;2022-12-07T01:33:59;98424.20;;;2.80
71081;BMP180;58740;50.672;18.690;2022-12-07T01:36:34;98428.60;;;2.80
71081;BMP180;58740;50.672;18.690;2022-12-07T01:39:06;98428.00;;;2.80
71081;BMP180;58740;50.672;18.690;2022-12-07T01:41:39;98430.60;;;2.80
71081;BMP180;58740;50.672;18.690;2022-12-07T01:47:00;98425.60;;;2.80
71081;BMP180;58740;50.672;18.690;2022-12-07T01:49:42;98423.20;;;2.88
71081;BMP180;58740;50.672;18.690;2022-12-07T01:52:24;98423.60;;;2.90
71081;BMP180;58740;50.672;18.690;2022-12-07T01:55:02;98423.00;;;2.82
71081;BMP180;58740;50.672;18.690;2022-12-07T01:57:34;98428.60;;;2.80
71081;BMP180;58740;50.672;18.690;2022-12-07T02:00:08;98419.60;;;2.80
71081;BMP180;58740;50.672;18.690;2022-12-07T02:02:43;98422.40;;;2.80
71081;BMP180;58740;50.672;18.690;2022-12-07T02:05:12;98424.80;;;2.80
71081;BMP180;58740;50.672;18.690;2022-12-07T02:07:40;98424.80;;;2.82
71081;BMP180;58740;50.672;18.690;2022-12-07T02:10:21;98427.40;;;2.90
71081;BMP180;58740;50.672;18.690;2022-12-07T02:13:10;98417.80;;;2.90
71081;BMP180;58740;50.672;18.690;2022-12-07T02:16:03;98408.20;;;2.90
71081;BMP180;58740;50.672;18.690;2022-12-07T02:18:59;98410.80;;;2.80
71081;BMP180;58740;50.672;18.690;2022-12-07T02:21:52;98413.40;;;2.80
71081;BMP180;58740;50.672;18.690;2022-12-07T02:27:47;98412.00;;;2.84
71081;BMP180;58740;50.672;18.690;2022-12-07T02:30:20;98408.40;;;2.90
71081;BMP180;58740;50.672;18.690;2022-12-07T02:32:55;98408.00;;;2.82
71081;BMP180;58740;50.672;18.690;2022-12-07T02:35:32;98410.40;;;2.80
71081;BMP180;58740;50.672;18.690;2022-12-07T02:38:17;98401.60;;;2.80
71081;BMP180;58740;50.672;18.690;2022-12-07T02:41:07;98406.00;;;2.80
71081;BMP180;58740;50.672;18.690;2022-12-07T02:43:43;98398.00;;;2.90
71081;BMP180;58740;50.672;18.690;2022-12-07T02:46:23;98394.20;;;2.90
71081;BMP180;58740;50.672;18.690;2022-12-07T02:48:53;98392.20;;;2.86
71081;BMP180;58740;50.672;18.690;2022-12-07T02:51:22;98393.00;;;2.86
71081;BMP180;58740;50.672;18.690;2022-12-07T02:53:51;98388.60;;;2.90
71081;BMP180;58740;50.672;18.690;2022-12-07T02:59:35;98388.80;;;2.80
71081;BMP180;58740;50.672;18.690;2022-12-07T03:02:35;98390.20;;;2.80
71081;BMP180;58740;50.672;18.690;2022-12-07T03:08:13;98390.80;;;2.80
71081;BMP180;58740;50.672;18.690;2022-12-07T03:11:01;98386.20;;;2.88
71081;BMP180;58740;50.672;18.690;2022-12-07T03:13:48;98388.60;;;2.90
71081;BMP180;58740;50.672;18.690;2022-12-07T03:16:22;98382.40;;;2.90
71081;BMP180;58740;50.672;18.690;2022-12-07T03:18:58;98388.80;;;2.90
71081;BMP180;58740;50.672;18.690;2022-12-07T03:21:37;98388.40;;;2.90
71081;BMP180;58740;50.672;18.690;2022-12-07T03:24:22;98386.20;;;2.90
71081;BMP180;58740;50.672;18.690;2022-12-07T03:27:01;98389.80;;;2.86
71081;BMP180;58740;50.672;18.690;2022-12-07T03:30:00;98393.00;;;2.82
71081;BMP180;58740;50.672;18.690;2022-12-07T03:32:42;98387.60;;;2.80
71081;BMP180;58740;50.672;18.690;2022-12-07T03:35:34;98383.60;;;2.80
71081;BMP180;58740;50.672;18.690;2022-12-07T03:38:37;98387.00;;;2.80
71081;BMP180;58740;50.672;18.690;2022-12-07T03:41:09;98383.00;;;2.80
71081;BMP180;58740;50.672;18.690;2022-12-07T03:43:40;98377.40;;;2.72
71081;BMP180;58740;50.672;18.690;2022-12-07T03:57:36;98368.00;;;2.70
71081;BMP180;58740;50.672;18.690;2022-12-07T04:00:07;98366.20;;;2.70
71081;BMP180;58740;50.672;18.690;2022-12-07T04:02:35;98363.60;;;2.70
71081;BMP180;58740;50.672;18.690;2022-12-07T04:05:05;98363.60;;;2.70
71081;BMP180;58740;50.672;18.690;2022-12-07T04:07:33;98359.00;;;2.60
71081;BMP180;58740;50.672;18.690;2022-12-07T04:10:02;98365.20;;;2.62
71081;BMP180;58740;50.672;18.690;2022-12-07T04:12:31;98361.40;;;2.60
71081;BMP180;58740;50.672;18.690;2022-12-07T04:14:59;98361.60;;;2.66
71081;BMP180;58740;50.672;18.690;2022-12-07T04:17:26;98362.20;;;2.68
71081;BMP180;58740;50.672;18.690;2022-12-07T04:19:54;98359.60;;;2.68
71081;BMP180;58740;50.672;18.690;2022-12-07T04:22:22;98359.60;;;2.68
71081;BMP180;58740;50.672;18.690;2022-12-07T04:24:49;98359.20;;;2.62
71081;BMP180;58740;50.672;18.690;2022-12-07T04:27:17;98358.40;;;2.60
71081;BMP180;58740;50.672;18.690;2022-12-07T04:29:45;98359.00;;;2.60
71081;BMP180;58740;50.672;18.690;2022-12-07T04:32:12;98360.20;;;2.60
71081;BMP180;58740;50.672;18.690;2022-12-07T04:34:40;98355.60;;;2.60
71081;BMP180;58740;50.672;18.690;2022-12-07T04:37:08;98351.20;;;2.60
71081;BMP180;58740;50.672;18.690;2022-12-07T04:39:36;98351.60;;;2.60
71081;BMP180;58740;50.672;18.690;2022-12-07T04:42:03;98353.20;;;2.60
71081;BMP180;58740;50.672;18.690;2022-12-07T04:44:31;98358.60;;;2.60
71081;BMP180;58740;50.672;18.690;2022-12-07T04:46:59;98360.80;;;2.60
71081;BMP180;58740;50.672;18.690;2022-12-07T04:49:27;98357.00;;;2.60
71081;BMP180;58740;50.672;18.690;2022-12-07T04:51:55;98354.00;;;2.60
71081;BMP180;58740;50.672;18.690;2022-12-07T04:54:23;98350.60;;;2.60
71081;BMP180;58740;50.672;18.690;2022-12-07T04:56:50;98352.60;;;2.60
71081;BMP180;58740;50.672;18.690;2022-12-07T04:59:18;98350.20;;;2.60
71081;BMP180;58740;50.672;18.690;2022-12-07T05:01:46;98348.00;;;2.60
71081;BMP180;58740;50.672;18.690;2022-12-07T05:04:14;98348.00;;;2.60
71081;BMP180;58740;50.672;18.690;2022-12-07T05:06:44;98343.60;;;2.60
71081;BMP180;58740;50.672;18.690;2022-12-07T05:09:11;98347.00;;;2.60
71081;BMP180;58740;50.672;18.690;2022-12-07T05:11:39;98345.40;;;2.60
71081;BMP180;58740;50.672;18.690;2022-12-07T05:14:16;98347.80;;;2.50
71081;BMP180;58740;50.672;18.690;2022-12-07T05:16:48;98348.60;;;2.50
71081;BMP180;58740;50.672;18.690;2022-12-07T05:19:18;98342.40;;;2.50
71081;BMP180;58740;50.672;18.690;2022-12-07T05:21:46;98345.00;;;2.50
71081;BMP180;58740;50.672;18.690;2022-12-07T05:24:16;98340.80;;;2.54
71081;BMP180;58740;50.672;18.690;2022-12-07T05:26:44;98341.80;;;2.56
71081;BMP180;58740;50.672;18.690;2022-12-07T05:29:17;98340.60;;;2.52
71081;BMP180;58740;50.672;18.690;2022-12-07T05:31:44;98349.20;;;2.50
71081;BMP180;58740;50.672;18.690;2022-12-07T05:34:13;98346.40;;;2.50
71081;BMP180;58740;50.672;18.690;2022-12-07T05:36:41;98357.80;;;2.50
71081;BMP180;58740;50.672;18.690;2022-12-07T05:39:08;98355.60;;;2.50
71081;BMP180;58740;50.672;18.690;2022-12-07T05:41:36;98361.00;;;2.50
71081;BMP180;58740;50.672;18.690;2022-12-07T05:44:23;98361.80;;;2.50
71081;BMP180;58740;50.672;18.690;2022-12-07T05:46:50;98365.00;;;2.52
71081;BMP180;58740;50.672;18.690;2022-12-07T05:49:18;98358.60;;;2.60
71081;BMP180;58740;50.672;18.690;2022-12-07T05:51:46;98357.40;;;2.52
71081;BMP180;58740;50.672;18.690;2022-12-07T05:54:13;98365.20;;;2.50
71081;BMP180;58740;50.672;18.690;2022-12-07T05:56:41;98373.20;;;2.50
71081;BMP180;58740;50.672;18.690;2022-12-07T05:59:09;98372.00;;;2.48
71081;BMP180;58740;50.672;18.690;2022-12-07T06:02:01;98377.20;;;2.44
71081;BMP180;58740;50.672;18.690;2022-12-07T06:04:35;98370.00;;;2.46
71081;BMP180;58740;50.672;18.690;2022-12-07T06:07:04;98374.60;;;2.50
71081;BMP180;58740;50.672;18.690;2022-12-07T06:09:33;98379.60;;;2.50
71081;BMP180;58740;50.672;18.690;2022-12-07T06:12:04;98376.60;;;2.50
71081;BMP180;58740;50.672;18.690;2022-12-07T06:14:51;98377.00;;;2.50
71081;BMP180;58740;50.672;18.690;2022-12-07T06:17:19;98379.00;;;2.50
71081;BMP180;58740;50.672;18.690;2022-12-07T06:19:46;98377.40;;;2.50
71081;BMP180;58740;50.672;18.690;2022-12-07T06:22:14;98374.40;;;2.50
71081;BMP180;58740;50.672;18.690;2022-12-07T06:24:44;98375.20;;;2.50
71081;BMP180;58740;50.672;18.690;2022-12-07T06:27:12;98380.00;;;2.50
71081;BMP180;58740;50.672;18.690;2022-12-07T06:29:40;98386.00;;;2.50
71081;BMP180;58740;50.672;18.690;2022-12-07T06:32:08;98383.60;;;2.50
71081;BMP180;58740;50.672;18.690;2022-12-07T06:34:36;98383.60;;;2.50
71081;BMP180;58740;50.672;18.690;2022-12-07T06:37:04;98384.00;;;2.50
71081;BMP180;58740;50.672;18.690;2022-12-07T06:39:32;98381.00;;;2.46
71081;BMP180;58740;50.672;18.690;2022-12-07T06:41:59;98383.40;;;2.40
71081;BMP180;58740;50.672;18.690;2022-12-07T06:44:27;98381.60;;;2.40
71081;BMP180;58740;50.672;18.690;2022-12-07T06:46:55;98383.80;;;2.40
71081;BMP180;58740;50.672;18.690;2022-12-07T06:49:43;98379.00;;;2.30
71081;BMP180;58740;50.672;18.690;2022-12-07T06:52:10;98387.40;;;2.40
71081;BMP180;58740;50.672;18.690;2022-12-07T06:54:38;98390.80;;;2.40
71081;BMP180;58740;50.672;18.690;2022-12-07T06:57:06;98390.60;;;2.40
71081;BMP180;58740;50.672;18.690;2022-12-07T06:59:33;98396.60;;;2.40
71081;BMP180;58740;50.672;18.690;2022-12-07T07:02:01;98397.00;;;2.40
71081;BMP180;58740;50.672;18.690;2022-12-07T07:04:29;98400.00;;;2.30
71081;BMP180;58740;50.672;18.690;2022-12-07T07:06:57;98395.20;;;2.32
71081;BMP180;58740;50.672;18.690;2022-12-07T07:09:26;98396.60;;;2.40
71081;BMP180;58740;50.672;18.690;2022-12-07T07:11:55;98399.40;;;2.40
71081;BMP180;58740;50.672;18.690;2022-12-07T07:14:23;98390.40;;;2.40
71081;BMP180;58740;50.672;18.690;2022-12-07T07:16:50;98393.20;;;2.40
71081;BMP180;58740;50.672;18.690;2022-12-07T07:19:18;98399.40;;;2.40
71081;BMP180;58740;50.672;18.690;2022-12-07T07:21:46;98399.80;;;2.40
71081;BMP180;58740;50.672;18.690;2022-12-07T07:24:14;98400.40;;;2.40
71081;BMP180;58740;50.672;18.690;2022-12-07T07:26:42;98395.80;;;2.40
71081;BMP180;58740;50.672;18.690;2022-12-07T07:29:09;98397.60;;;2.40
71081;BMP180;58740;50.672;18.690;2022-12-07T07:31:37;98401.60;;;2.40
71081;BMP180;58740;50.672;18.690;2022-12-07T07:34:05;98392.80;;;2.40
71081;BMP180;58740;50.672;18.690;2022-12-07T07:36:33;98393.80;;;2.40
71081;BMP180;58740;50.672;18.690;2022-12-07T07:39:00;98398.80;;;2.50
71081;BMP180;58740;50.672;18.690;2022-12-07T07:41:28;98403.20;;;2.46
71081;BMP180;58740;50.672;18.690;2022-12-07T07:43:56;98404.80;;;2.40
71081;BMP180;58740;50.672;18.690;2022-12-07T07:46:23;98405.60;;;2.40
71081;BMP180;58740;50.672;18.690;2022-12-07T07:48:51;98396.60;;;2.40
71081;BMP180;58740;50.672;18.690;2022-12-07T07:51:19;98400.60;;;2.40
71081;BMP180;58740;50.672;18.690;2022-12-07T07:53:47;98403.80;;;2.40
71081;BMP180;58740;50.672;18.690;2022-12-07T07:56:15;98404.40;;;2.40
71081;BMP180;58740;50.672;18.690;2022-12-07T07:58:42;98404.00;;;2.40
71081;BMP180;58740;50.672;18.690;2022-12-07T08:01:10;98404.60;;;2.44
71081;BMP180;58740;50.672;18.690;2022-12-07T08:03:38;98406.20;;;2.50
71081;BMP180;58740;50.672;18.690;2022-12-07T08:06:06;98406.00;;;2.44
71081;BMP180;58740;50.672;18.690;2022-12-07T08:08:34;98405.00;;;2.40
71081;BMP180;58740;50.672;18.690;2022-12-07T08:11:06;98409.00;;;2.40
71081;BMP180;58740;50.672;18.690;2022-12-07T08:13:35;98413.00;;;2.40
71081;BMP180;58740;50.672;18.690;2022-12-07T08:16:09;98416.80;;;2.40
71081;BMP180;58740;50.672;18.690;2022-12-07T08:18:40;98423.60;;;2.40
71081;BMP180;58740;50.672;18.690;2022-12-07T08:21:14;98426.40;;;2.40
71081;BMP180;58740;50.672;18.690;2022-12-07T08:23:43;98427.00;;;2.46
71081;BMP180;58740;50.672;18.690;2022-12-07T08:26:15;98431.80;;;2.50
71081;BMP180;58740;50.672;18.690;2022-12-07T08:28:43;98430.40;;;2.50
71081;BMP180;58740;50.672;18.690;2022-12-07T08:31:16;98434.00;;;2.50
71081;BMP180;58740;50.672;18.690;2022-12-07T08:33:47;98436.00;;;2.50
71081;BMP180;58740;50.672;18.690;2022-12-07T08:36:15;98432.60;;;2.50
71081;BMP180;58740;50.672;18.690;2022-12-07T08:38:44;98434.60;;;2.50
71081;BMP180;58740;50.672;18.690;2022-12-07T08:41:32;98439.80;;;2.48
71081;BMP180;58740;50.672;18.690;2022-12-07T08:44:01;98442.80;;;2.50
71081;BMP180;58740;50.672;18.690;2022-12-07T08:46:46;98439.20;;;2.50
71081;BMP180;58740;50.672;18.690;2022-12-07T08:49:39;98443.20;;;2.56
71081;BMP180;58740;50.672;18.690;2022-12-07T08:52:08;98442.40;;;2.60
71081;BMP180;58740;50.672;18.690;2022-12-07T08:54:39;98437.80;;;2.60
71081;BMP180;58740;50.672;18.690;2022-12-07T08:57:09;98434.00;;;2.60
71081;BMP180;58740;50.672;18.690;2022-12-07T08:59:37;98433.20;;;2.60
71081;BMP180;58740;50.672;18.690;2022-12-07T09:02:06;98428.20;;;2.60
71081;BMP180;58740;50.672;18.690;2022-12-07T09:04:34;98433.00;;;2.70
71081;BMP180;58740;50.672;18.690;2022-12-07T09:07:02;98426.80;;;2.70
71081;BMP180;58740;50.672;18.690;2022-12-07T09:09:32;98428.80;;;2.70
71081;BMP180;58740;50.672;18.690;2022-12-07T09:12:00;98424.60;;;2.72
71081;BMP180;58740;50.672;18.690;2022-12-07T09:14:28;98419.40;;;2.78
71081;BMP180;58740;50.672;18.690;2022-12-07T09:17:09;98417.20;;;2.72
71081;BMP180;58740;50.672;18.690;2022-12-07T09:19:38;98423.00;;;2.74
71081;BMP180;58740;50.672;18.690;2022-12-07T09:22:06;98419.00;;;2.80
71081;BMP180;58740;50.672;18.690;2022-12-07T09:24:35;98411.00;;;2.80
71081;BMP180;58740;50.672;18.690;2022-12-07T09:27:03;98406.40;;;2.80
71081;BMP180;58740;50.672;18.690;2022-12-07T09:29:30;98404.20;;;2.82
71081;BMP180;58740;50.672;18.690;2022-12-07T09:31:58;98406.00;;;2.88
71081;BMP180;58740;50.672;18.690;2022-12-07T09:34:26;98393.60;;;2.88
71081;BMP180;58740;50.672;18.690;2022-12-07T09:36:54;98397.20;;;2.80
71081;BMP180;58740;50.672;18.690;2022-12-07T09:39:22;98391.60;;;2.86
71081;BMP180;58740;50.672;18.690;2022-12-07T09:41:50;98390.40;;;2.88
71081;BMP180;58740;50.672;18.690;2022-12-07T09:44:25;98385.00;;;2.90
71081;BMP180;58740;50.672;18.690;2022-12-07T09:46:55;98378.80;;;2.90
71081;BMP180;58740;50.672;18.690;2022-12-07T09:49:28;98374.20;;;2.90
71081;BMP180;58740;50.672;18.690;2022-12-07T09:52:20;98378.20;;;2.94
71081;BMP180;58740;50.672;18.690;2022-12-07T09:54:52;98371.00;;;2.96
71081;BMP180;58740;50.672;18.690;2022-12-07T09:57:31;98374.20;;;2.96
71081;BMP180;58740;50.672;18.690;2022-12-07T10:00:05;98368.80;;;2.98
71081;BMP180;58740;50.672;18.690;2022-12-07T10:03:04;98368.00;;;3.00
71081;BMP180;58740;50.672;18.690;2022-12-07T10:05:41;98362.80;;;3.00
71081;BMP180;58740;50.672;18.690;2022-12-07T10:08:12;98369.00;;;3.10
71081;BMP180;58740;50.672;18.690;2022-12-07T10:10:41;98372.60;;;3.10
71081;BMP180;58740;50.672;18.690;2022-12-07T10:13:18;98362.60;;;3.10
71081;BMP180;58740;50.672;18.690;2022-12-07T10:15:55;98361.00;;;3.10
71081;BMP180;58740;50.672;18.690;2022-12-07T10:18:40;98367.20;;;3.16
71081;BMP180;58740;50.672;18.690;2022-12-07T10:21:13;98360.40;;;3.18
71081;BMP180;58740;50.672;18.690;2022-12-07T10:24:02;98356.20;;;3.20
71081;BMP180;58740;50.672;18.690;2022-12-07T10:26:50;98348.40;;;3.22
71081;BMP180;58740;50.672;18.690;2022-12-07T10:32:26;98359.40;;;3.30
71081;BMP180;58740;50.672;18.690;2022-12-07T10:37:47;98354.60;;;3.30
71081;BMP180;58740;50.672;18.690;2022-12-07T10:40:34;98347.40;;;3.22
71081;BMP180;58740;50.672;18.690;2022-12-07T10:43:17;98347.60;;;3.22
71081;BMP180;58740;50.672;18.690;2022-12-07T10:49:08;98343.40;;;3.26
71081;BMP180;58740;50.672;18.690;2022-12-07T10:51:59;98346.00;;;3.30
71081;BMP180;58740;50.672;18.690;2022-12-07T10:55:03;98341.60;;;3.30
71081;BMP180;58740;50.672;18.690;2022-12-07T10:57:56;98343.60;;;3.30
71081;BMP180;58740;50.672;18.690;2022-12-07T11:06:16;98339.40;;;3.30
71081;BMP180;58740;50.672;18.690;2022-12-07T11:11:41;98337.60;;;3.40
71081;BMP180;58740;50.672;18.690;2022-12-07T11:17:26;98332.60;;;3.50
71081;BMP180;58740;50.672;18.690;2022-12-07T11:20:28;98324.40;;;3.50
71081;BMP180;58740;50.672;18.690;2022-12-07T11:23:32;98324.00;;;3.54
71081;BMP180;58740;50.672;18.690;2022-12-07T11:38:15;98314.80;;;3.70
71081;BMP180;58740;50.672;18.690;2022-12-07T11:40:58;98309.60;;;3.70
71081;BMP180;58740;50.672;18.690;2022-12-07T11:47:34;98301.00;;;3.66
71081;BMP180;58740;50.672;18.690;2022-12-07T11:50:35;98301.20;;;3.70
71081;BMP180;58740;50.672;18.690;2022-12-07T11:53:24;98287.20;;;3.70
71081;BMP180;58740;50.672;18.690;2022-12-07T11:56:00;98279.60;;;3.70
71081;BMP180;58740;50.672;18.690;2022-12-07T11:59:10;98278.60;;;3.70
71081;BMP180;58740;50.672;18.690;2022-12-07T12:02:55;98281.40;;;3.70
71081;BMP180;58740;50.672;18.690;2022-12-07T12:05:25;98283.00;;;3.70
71081;BMP180;58740;50.672;18.690;2022-12-07T12:08:33;98276.40;;;3.70
71081;BMP180;58740;50.672;18.690;2022-12-07T12:15:47;98281.20;;;3.80
71081;BMP180;58740;50.672;18.690;2022-12-07T12:18:30;98281.00;;;3.80
71081;BMP180;58740;50.672;18.690;2022-12-07T12:21:17;98273.00;;;3.80
71081;BMP180;58740;50.672;18.690;2022-12-07T12:24:14;98268.20;;;3.78
71081;BMP180;58740;50.672;18.690;2022-12-07T12:26:56;98264.60;;;3.70
71081;BMP180;58740;50.672;18.690;2022-12-07T12:29:59;98256.20;;;3.70
71081;BMP180;58740;50.672;18.690;2022-12-07T12:32:48;98259.00;;;3.80
71081;BMP180;58740;50.672;18.690;2022-12-07T12:35:36;98258.00;;;3.80
71081;BMP180;58740;50.672;18.690;2022-12-07T12:38:32;98258.40;;;3.90
71081;BMP180;58740;50.672;18.690;2022-12-07T12:41:01;98247.60;;;3.90
71081;BMP180;58740;50.672;18.690;2022-12-07T12:43:46;98243.80;;;3.90
71081;BMP180;58740;50.672;18.690;2022-12-07T12:51:46;98236.20;;;3.86
71081;BMP180;58740;50.672;18.690;2022-12-07T12:54:22;98241.60;;;3.90
71081;BMP180;58740;50.672;18.690;2022-12-07T12:57:27;98241.40;;;3.90
71081;BMP180;58740;50.672;18.690;2022-12-07T12:59:59;98239.20;;;3.90
71081;BMP180;58740;50.672;18.690;2022-12-07T13:02:30;98242.00;;;3.90
71081;BMP180;58740;50.672;18.690;2022-12-07T13:13:28;98260.40;;;3.90
71081;BMP180;58740;50.672;18.690;2022-12-07T13:18:38;98268.80;;;3.82
71081;BMP180;58740;50.672;18.690;2022-12-07T13:29:13;98262.00;;;3.60
71081;BMP180;58740;50.672;18.690;2022-12-07T13:31:51;98267.80;;;3.60
71081;BMP180;58740;50.672;18.690;2022-12-07T13:34:41;98269.40;;;3.60
71081;BMP180;58740;50.672;18.690;2022-12-07T13:37:27;98276.80;;;3.60
71081;BMP180;58740;50.672;18.690;2022-12-07T13:40:21;98272.00;;;3.60
71081;BMP180;58740;50.672;18.690;2022-12-07T13:42:58;98272.20;;;3.60
71081;BMP180;58740;50.672;18.690;2022-12-07T13:45:33;98280.40;;;3.54
71081;BMP180;58740;50.672;18.690;2022-12-07T13:48:32;98284.20;;;3.50
71081;BMP180;58740;50.672;18.690;2022-12-07T13:51:03;98295.20;;;3.50
71081;BMP180;58740;50.672;18.690;2022-12-07T13:53:31;98298.60;;;3.50
71081;BMP180;58740;50.672;18.690;2022-12-07T13:56:01;98300.20;;;3.50
71081;BMP180;58740;50.672;18.690;2022-12-07T13:58:32;98292.40;;;3.50
71081;BMP180;58740;50.672;18.690;2022-12-07T14:01:01;98290.00;;;3.50
71081;BMP180;58740;50.672;18.690;2022-12-07T14:03:35;98293.80;;;3.50
71081;BMP180;58740;50.672;18.690;2022-12-07T14:06:27;98294.60;;;3.50
71081;BMP180;58740;50.672;18.690;2022-12-07T14:09:18;98294.60;;;3.50
71081;BMP180;58740;50.672;18.690;2022-12-07T14:11:48;98290.40;;;3.50
71081;BMP180;58740;50.672;18.690;2022-12-07T14:14:29;98294.20;;;3.50
71081;BMP180;58740;50.672;18.690;2022-12-07T14:17:16;98299.40;;;3.50
71081;BMP180;58740;50.672;18.690;2022-12-07T14:19:52;98301.40;;;3.50
71081;BMP180;58740;50.672;18.690;2022-12-07T14:22:36;98299.20;;;3.50
71081;BMP180;58740;50.672;18.690;2022-12-07T14:25:18;98296.00;;;3.50
71081;BMP180;58740;50.672;18.690;2022-12-07T14:27:59;98298.60;;;3.50
71081;BMP180;58740;50.672;18.690;2022-12-07T14:30:33;98297.00;;;3.50
71081;BMP180;58740;50.672;18.690;2022-12-07T14:33:09;98299.80;;;3.40
71081;BMP180;58740;50.672;18.690;2022-12-07T14:35:37;98305.40;;;3.40
71081;BMP180;58740;50.672;18.690;2022-12-07T14:38:07;98307.60;;;3.40
71081;BMP180;58740;50.672;18.690;2022-12-07T14:40:36;98304.20;;;3.40
71081;BMP180;58740;50.672;18.690;2022-12-07T14:43:09;98304.00;;;3.40
71081;BMP180;58740;50.672;18.690;2022-12-07T14:45:38;98300.40;;;3.40
71081;BMP180;58740;50.672;18.690;2022-12-07T14:48:12;98308.40;;;3.40
71081;BMP180;58740;50.672;18.690;2022-12-07T14:51:00;98307.60;;;3.40
71081;BMP180;58740;50.672;18.690;2022-12-07T14:53:51;98304.40;;;3.40
71081;BMP180;58740;50.672;18.690;2022-12-07T14:56:25;98299.00;;;3.38
71081;BMP180;58740;50.672;18.690;2022-12-07T14:58:53;98296.20;;;3.40
71081;BMP180;58740;50.672;18.690;2022-12-07T15:01:21;98307.20;;;3.40
71081;BMP180;58740;50.672;18.690;2022-12-07T15:03:49;98304.80;;;3.40
71081;BMP180;58740;50.672;18.690;2022-12-07T15:06:18;98297.40;;;3.40
71081;BMP180;58740;50.672;18.690;2022-12-07T15:08:46;98307.80;;;3.40
71081;BMP180;58740;50.672;18.690;2022-12-07T15:11:17;98303.40;;;3.40
71081;BMP180;58740;50.672;18.690;2022-12-07T15:13:45;98304.00;;;3.40
71081;BMP180;58740;50.672;18.690;2022-12-07T15:16:31;98303.80;;;3.40
71081;BMP180;58740;50.672;18.690;2022-12-07T15:19:24;98305.80;;;3.34
71081;BMP180;58740;50.672;18.690;2022-12-07T15:21:57;98296.60;;;3.34
71081;BMP180;58740;50.672;18.690;2022-12-07T15:24:26;98300.60;;;3.38
71081;BMP180;58740;50.672;18.690;2022-12-07T15:26:54;98299.60;;;3.40
71081;BMP180;58740;50.672;18.690;2022-12-07T15:29:22;98295.80;;;3.40
71081;BMP180;58740;50.672;18.690;2022-12-07T15:31:51;98301.40;;;3.40
71081;BMP180;58740;50.672;18.690;2022-12-07T15:34:27;98305.20;;;3.40
71081;BMP180;58740;50.672;18.690;2022-12-07T15:37:04;98301.80;;;3.40
71081;BMP180;58740;50.672;18.690;2022-12-07T15:39:33;98297.40;;;3.40
71081;BMP180;58740;50.672;18.690;2022-12-07T15:42:01;98300.20;;;3.40
71081;BMP180;58740;50.672;18.690;2022-12-07T15:44:29;98307.40;;;3.38
71081;BMP180;58740;50.672;18.690;2022-12-07T15:47:16;98306.60;;;3.34
71081;BMP180;58740;50.672;18.690;2022-12-07T15:49:44;98304.20;;;3.30
71081;BMP180;58740;50.672;18.690;2022-12-07T15:52:12;98298.00;;;3.30
71081;BMP180;58740;50.672;18.690;2022-12-07T15:54:40;98296.20;;;3.30
71081;BMP180;58740;50.672;18.690;2022-12-07T15:57:09;98300.20;;;3.26
71081;BMP180;58740;50.672;18.690;2022-12-07T15:59:37;98301.40;;;3.20
71081;BMP180;58740;50.672;18.690;2022-12-07T16:02:04;98301.00;;;3.20
71081;BMP180;58740;50.672;18.690;2022-12-07T16:04:32;98312.00;;;3.24
71081;BMP180;58740;50.672;18.690;2022-12-07T16:07:01;98306.80;;;3.28
71081;BMP180;58740;50.672;18.690;2022-12-07T16:09:29;98303.20;;;3.30
71081;BMP180;58740;50.672;18.690;2022-12-07T16:11:57;98306.00;;;3.30
71081;BMP180;58740;50.672;18.690;2022-12-07T16:14:24;98309.20;;;3.30
71081;BMP180;58740;50.672;18.690;2022-12-07T16:16:53;98310.80;;;3.30
71081;BMP180;58740;50.672;18.690;2022-12-07T16:19:21;98303.80;;;3.30